Vilonia, Arkansas
Current Conditions -  °F | °C
As of 2:58 AM on Tuesday 21 Oct 2014 (Local Time) from KLRF Reporting Station
Clear Clear  
Wind Chill: 52°   Ceiling: Unl
Heat Index: 52°   Visibility: 10mi
Dew Point: 51°   Wind: 5mph
Humidity: 96%   Direction: 250°WSW
Pressure: 30.04"   Gusts: NA
Location:  35.08°N, 92.21°W
Report Text: KLRF 210758Z AUTO 25004KT 10SM CLR 11/11 A3004 RMK AO2 SLP174 T01120106
Loading
Personal Weather Stations






























Interactive Weather Map
Tropical Storm Tracking
New forecast layout! Learn more

10-Day Weather Forecast

Advertisements
Track Severe Weather on mobile